Baraboo/Wisconsin Dells, Wisconsin
Current Conditions -  °F | °C
As of 1:55 AM on Friday 31 Oct 2014 (Local Time) from KDLL Reporting Station
Overcast Overcast  
Wind Chill: 25°   Ceiling: 2800
Heat Index: 35°   Visibility: 10mi
Dew Point: 26°   Wind: 16mph
Humidity: 69%   Direction: 340°NNW
Pressure: 30.13"   Gusts: 26mph
Location:  43.55°N, 89.77°W
Report Text: KDLL 310655Z AUTO 34014G23KT 10SM BKN028 OVC033 02/M04 A3013 RMK AO2 T00161036
Loading
Personal Weather Stations






























Interactive Weather Map
Tropical Storm Tracking
New forecast layout! Learn more

10-Day Weather Forecast

Advertisements
Track Severe Weather on mobile